createdAt,value
2019-01-03T00:02:05.122Z,0.40
2019-01-03T00:05:11.279Z,0.40
2019-01-03T00:08:15.909Z,0.40
2019-01-03T00:11:02.886Z,0.40
2019-01-03T00:14:03.630Z,0.30
2019-01-03T00:16:51.670Z,0.40
2019-01-03T00:19:38.203Z,0.40
2019-01-03T00:22:46.314Z,0.30
2019-01-03T00:25:36.954Z,0.30
2019-01-03T00:28:21.563Z,0.30
2019-01-03T00:31:18.262Z,0.30
2019-01-03T00:34:09.230Z,0.30
2019-01-03T00:36:56.194Z,0.20
2019-01-03T00:39:45.083Z,0.20
2019-01-03T00:42:40.092Z,0.10
2019-01-03T00:45:33.929Z,0.20
2019-01-03T00:48:28.038Z,0.20
2019-01-03T00:51:14.510Z,0.20
2019-01-03T00:54:01.326Z,0.20
2019-01-03T00:56:48.297Z,0.10
2019-01-03T00:59:42.375Z,0.10
2019-01-03T01:02:46.136Z,0.20
2019-01-03T01:05:34.083Z,0.20
2019-01-03T01:08:28.273Z,0.20
2019-01-03T01:11:39.282Z,0.30
2019-01-03T01:14:26.547Z,0.30
2019-01-03T01:17:13.165Z,0.40
2019-01-03T01:20:03.963Z,0.50
2019-01-03T01:22:50.592Z,0.60
2019-01-03T01:25:49.103Z,0.60
2019-01-03T01:28:36.556Z,0.70
2019-01-03T01:31:23.652Z,0.70
2019-01-03T01:34:31.033Z,0.80
2019-01-03T01:37:18.470Z,0.80
2019-01-03T01:40:02.874Z,0.70
2019-01-03T01:42:52.882Z,0.70
2019-01-03T01:45:56.993Z,0.70
2019-01-03T01:49:00.965Z,0.70
2019-01-03T01:51:47.651Z,0.70
2019-01-03T01:54:37.880Z,0.80
2019-01-03T01:57:33.529Z,0.80
2019-01-03T02:00:20.370Z,0.90
2019-01-03T02:03:17.813Z,0.90
2019-01-03T02:06:05.873Z,1.00
2019-01-03T02:09:00.509Z,1.00
2019-01-03T02:11:52.189Z,1.10
2019-01-03T02:14:52.304Z,1.00
2019-01-03T02:17:29.474Z,1.00
2019-01-03T02:20:33.394Z,1.00
2019-01-03T02:23:20.461Z,0.90
2019-01-03T02:26:23.697Z,0.90
2019-01-03T02:29:16.033Z,0.90
2019-01-03T02:32:03.141Z,0.90
2019-01-03T02:34:49.720Z,1.00
2019-01-03T02:37:36.582Z,1.00
2019-01-03T02:40:25.170Z,1.00
2019-01-03T02:43:05.935Z,0.90
2019-01-03T02:45:53.014Z,0.90
2019-01-03T02:48:47.406Z,0.90
2019-01-03T02:51:35.138Z,0.90
2019-01-03T02:54:35.649Z,0.80
2019-01-03T02:57:34.840Z,0.80
2019-01-03T03:00:22.711Z,0.80
2019-01-03T03:03:09.486Z,0.80
2019-01-03T03:06:12.238Z,0.80
2019-01-03T03:08:54.731Z,0.90
2019-01-03T03:11:41.532Z,0.90
2019-01-03T03:14:27.218Z,0.90
2019-01-03T03:17:14.972Z,0.90
2019-01-03T03:19:58.564Z,0.90
2019-01-03T03:22:45.477Z,0.90
2019-01-03T03:25:28.000Z,0.90
2019-01-03T03:28:09.750Z,0.90
2019-01-03T03:31:09.893Z,0.90
2019-01-03T03:34:10.055Z,0.90
2019-01-03T03:37:00.875Z,0.80
2019-01-03T03:40:07.070Z,0.90
2019-01-03T03:42:53.733Z,0.90
2019-01-03T03:45:41.751Z,0.90
2019-01-03T03:48:27.438Z,1.00
2019-01-03T03:51:14.301Z,1.00
2019-01-03T03:54:00.458Z,1.00
2019-01-03T03:56:47.370Z,1.00
2019-01-03T03:59:38.811Z,1.00
2019-01-03T04:02:31.180Z,1.00
2019-01-03T04:05:29.282Z,1.10
2019-01-03T04:08:15.983Z,1.10
2019-01-03T04:11:02.996Z,1.20
2019-01-03T04:13:51.583Z,1.20
2019-01-03T04:16:42.357Z,1.20
2019-01-03T04:19:30.622Z,1.10
2019-01-03T04:22:20.514Z,1.10
2019-01-03T04:25:15.210Z,1.10
2019-01-03T04:28:02.059Z,1.10
2019-01-03T04:30:50.182Z,1.10
2019-01-03T04:33:37.274Z,1.10
2019-01-03T04:36:27.714Z,1.10
2019-01-03T04:39:06.619Z,1.20
2019-01-03T04:41:53.383Z,1.20
2019-01-03T04:44:40.194Z,1.20
2019-01-03T04:47:18.712Z,1.20
2019-01-03T04:50:08.856Z,1.20
2019-01-03T04:52:54.558Z,1.20
2019-01-03T04:55:41.211Z,1.20
2019-01-03T04:58:28.174Z,1.20
2019-01-03T05:01:53.632Z,1.20
2019-01-03T05:04:42.130Z,1.30
2019-01-03T05:07:39.800Z,1.30
2019-01-03T05:10:31.744Z,1.30
2019-01-03T05:13:19.066Z,1.30
2019-01-03T05:16:17.757Z,1.30
2019-01-03T05:19:05.962Z,1.30
2019-01-03T05:22:01.172Z,1.20
2019-01-03T05:24:57.727Z,1.20
2019-01-03T05:27:48.741Z,1.30
2019-01-03T05:30:37.396Z,1.30
2019-01-03T05:33:29.221Z,1.40
2019-01-03T05:36:16.543Z,1.30
2019-01-03T05:39:05.365Z,1.40
2019-01-03T05:41:46.359Z,1.40
2019-01-03T05:44:32.454Z,1.40
2019-01-03T05:47:21.015Z,1.50
2019-01-03T05:50:18.855Z,1.50
2019-01-03T05:53:07.281Z,1.60
2019-01-03T05:56:05.927Z,1.70
2019-01-03T05:58:57.982Z,1.70
2019-01-03T06:01:48.386Z,1.70
2019-01-03T06:04:31.193Z,1.70
2019-01-03T06:07:31.267Z,1.70
2019-01-03T06:10:34.653Z,1.70
2019-01-03T06:13:21.445Z,1.80
2019-01-03T06:16:22.012Z,1.80
2019-01-03T06:19:18.549Z,1.80
2019-01-03T06:22:04.169Z,1.90
2019-01-03T06:24:51.422Z,1.90
2019-01-03T06:27:54.913Z,1.90
2019-01-03T06:30:47.964Z,2.00
2019-01-03T06:33:45.524Z,2.00
2019-01-03T06:36:45.702Z,2.10
2019-01-03T06:39:32.102Z,2.20
2019-01-03T06:42:29.081Z,2.10
2019-01-03T06:45:13.499Z,2.10
2019-01-03T06:48:07.971Z,2.20
2019-01-03T06:51:03.750Z,2.10
2019-01-03T06:54:00.670Z,2.20
2019-01-03T06:56:48.656Z,2.20
2019-01-03T06:59:44.050Z,2.30
2019-01-03T07:02:47.166Z,2.30
2019-01-03T07:05:28.018Z,2.30
2019-01-03T07:08:19.576Z,2.30
2019-01-03T07:11:04.652Z,2.30
2019-01-03T07:14:08.100Z,2.30
2019-01-03T07:16:59.330Z,2.30
2019-01-03T07:19:48.018Z,2.30
2019-01-03T07:22:48.122Z,2.40
2019-01-03T07:25:34.853Z,2.40
2019-01-03T07:28:22.891Z,2.40
2019-01-03T07:31:20.183Z,2.40
2019-01-03T07:34:15.887Z,2.40
2019-01-03T07:37:03.895Z,2.40
2019-01-03T07:39:50.754Z,2.50
2019-01-03T07:42:41.358Z,2.50
2019-01-03T07:45:28.026Z,2.40
2019-01-03T07:48:13.570Z,2.50
2019-01-03T07:51:00.386Z,2.50
2019-01-03T07:53:58.132Z,2.60
2019-01-03T07:56:46.068Z,2.60
2019-01-03T07:59:32.997Z,2.60
2019-01-03T08:02:36.386Z,2.60
2019-01-03T08:05:27.544Z,2.60
2019-01-03T08:08:14.403Z,2.70
2019-01-03T08:11:01.519Z,2.70
2019-01-03T08:13:42.951Z,2.80
2019-01-03T08:16:34.734Z,2.90
2019-01-03T08:19:39.536Z,2.90
2019-01-03T08:22:26.543Z,3.00
2019-01-03T08:25:07.491Z,3.00
2019-01-03T08:27:59.575Z,3.00
2019-01-03T08:31:05.879Z,3.10
2019-01-03T08:33:59.678Z,3.10
2019-01-03T08:36:46.565Z,3.10
2019-01-03T08:39:44.258Z,3.00
2019-01-03T08:42:47.554Z,3.00
2019-01-03T08:45:33.726Z,3.00
2019-01-03T08:48:29.910Z,3.00
2019-01-03T08:51:13.855Z,3.00
2019-01-03T08:54:17.334Z,3.00
2019-01-03T08:56:57.089Z,3.00
2019-01-03T08:59:43.634Z,3.00
2019-01-03T09:02:49.930Z,3.00
2019-01-03T09:05:36.630Z,3.00
2019-01-03T09:08:23.557Z,3.10
2019-01-03T09:11:08.936Z,3.20
2019-01-03T09:13:55.981Z,3.20
2019-01-03T09:16:43.049Z,3.20
2019-01-03T09:19:38.822Z,3.20
2019-01-03T09:22:26.899Z,3.30
2019-01-03T09:25:06.707Z,3.30
2019-01-03T09:28:09.942Z,3.40
2019-01-03T09:31:09.802Z,3.40
2019-01-03T09:34:06.726Z,3.50
2019-01-03T09:36:53.504Z,3.60
2019-01-03T09:39:50.567Z,3.60
2019-01-03T09:42:37.176Z,3.70
2019-01-03T09:45:06.517Z,3.90
2019-01-03T09:47:37.325Z,4.00
2019-01-03T09:50:07.795Z,4.20
2019-01-03T09:52:36.724Z,4.30
2019-01-03T09:55:05.646Z,4.40
2019-01-03T09:57:34.594Z,4.40
2019-01-03T10:00:03.635Z,4.40
2019-01-03T10:02:32.550Z,4.40
2019-01-03T10:05:01.422Z,4.20
2019-01-03T10:07:30.282Z,4.20
2019-01-03T10:09:59.139Z,4.10
2019-01-03T10:12:28.166Z,4.20
2019-01-03T10:14:57.089Z,4.10
2019-01-03T10:17:26.170Z,4.20
2019-01-03T10:19:55.098Z,4.20
2019-01-03T10:22:24.062Z,4.30
2019-01-03T10:24:52.995Z,4.30
2019-01-03T10:27:22.250Z,4.30
2019-01-03T10:29:51.154Z,4.30
2019-01-03T10:32:20.115Z,4.20
2019-01-03T10:34:48.996Z,4.20
2019-01-03T10:37:17.946Z,4.20
2019-01-03T10:39:46.850Z,4.20
2019-01-03T10:42:15.774Z,4.20
2019-01-03T10:44:44.632Z,4.20
2019-01-03T10:47:13.569Z,4.20
2019-01-03T10:49:42.442Z,4.20
2019-01-03T10:52:11.295Z,4.40
2019-01-03T10:54:40.159Z,5.30
2019-01-03T10:57:09.015Z,7.20
2019-01-03T10:59:37.904Z,8.90
2019-01-03T11:02:06.828Z,10.60
2019-01-03T11:04:35.798Z,12.70
2019-01-03T11:07:04.833Z,14.60
2019-01-03T11:09:33.710Z,16.30
2019-01-03T11:12:02.644Z,17.30
2019-01-03T11:14:31.723Z,18.40
2019-01-03T11:17:00.639Z,18.00
2019-01-03T11:19:29.619Z,18.10
2019-01-03T11:21:58.631Z,18.70
2019-01-03T11:24:27.537Z,19.20
2019-01-03T11:26:56.618Z,19.50
2019-01-03T11:29:25.521Z,19.50
2019-01-03T11:31:54.446Z,19.10
2019-01-03T11:34:23.591Z,19.40
2019-01-03T11:36:52.634Z,19.40
2019-01-03T11:39:21.514Z,19.30
2019-01-03T11:41:50.473Z,19.10
2019-01-03T11:44:19.329Z,19.00
2019-01-03T11:46:48.198Z,18.70
2019-01-03T11:49:17.182Z,18.70
2019-01-03T11:51:46.158Z,19.00
2019-01-03T11:54:15.046Z,19.00
2019-01-03T11:56:44.174Z,19.30
2019-01-03T11:59:13.187Z,19.30
2019-01-03T12:01:42.187Z,18.70
2019-01-03T12:04:11.049Z,18.10
2019-01-03T12:06:39.917Z,17.80
2019-01-03T12:09:08.934Z,17.40
2019-01-03T12:11:37.810Z,16.90
2019-01-03T12:14:06.869Z,16.60
2019-01-03T12:16:35.898Z,15.90
2019-01-03T12:19:04.972Z,15.00
2019-01-03T12:21:33.978Z,14.20
2019-01-03T12:24:02.912Z,13.50
2019-01-03T12:26:31.858Z,12.90
2019-01-03T12:29:00.862Z,12.10
2019-01-03T12:31:29.917Z,11.40
2019-01-03T12:33:58.947Z,10.60
2019-01-03T12:36:27.926Z,9.80
2019-01-03T12:38:56.793Z,9.20
2019-01-03T12:41:25.663Z,8.70
2019-01-03T12:43:54.510Z,8.40
2019-01-03T12:46:23.477Z,8.10
2019-01-03T12:48:52.338Z,7.90
2019-01-03T12:51:21.335Z,7.70
2019-01-03T12:53:50.253Z,7.50
2019-01-03T12:56:19.213Z,7.30
2019-01-03T12:58:48.129Z,7.20
2019-01-03T13:01:17.094Z,7.10
2019-01-03T13:03:45.977Z,7.00
2019-01-03T13:06:20.801Z,6.90
2019-01-03T13:08:45.796Z,6.90
2019-01-03T13:11:14.701Z,6.90
2019-01-03T13:13:43.725Z,6.90
2019-01-03T13:16:12.784Z,7.00
2019-01-03T13:18:41.743Z,6.90
2019-01-03T13:21:10.694Z,6.90
2019-01-03T13:23:39.682Z,6.80
2019-01-03T13:26:08.639Z,6.70
2019-01-03T13:28:37.469Z,6.60
2019-01-03T13:31:06.422Z,6.60
2019-01-03T13:33:35.277Z,6.50
2019-01-03T13:36:04.474Z,6.50
2019-01-03T13:38:33.437Z,6.50
2019-01-03T13:41:02.451Z,6.40
2019-01-03T13:43:31.376Z,6.50
2019-01-03T13:46:00.241Z,6.40
2019-01-03T13:48:29.186Z,6.40
2019-01-03T13:50:58.069Z,6.30
2019-01-03T13:53:27.074Z,6.30
2019-01-03T13:55:56.218Z,6.30
2019-01-03T13:58:25.142Z,6.30
2019-01-03T14:00:54.001Z,6.20
2019-01-03T14:03:23.021Z,6.20
2019-01-03T14:05:52.144Z,6.20
2019-01-03T14:08:21.025Z,6.20
2019-01-03T14:10:50.039Z,6.20
2019-01-03T14:13:19.120Z,6.20
2019-01-03T14:15:48.050Z,6.10
2019-01-03T14:18:17.090Z,6.10
2019-01-03T14:20:45.970Z,6.10
2019-01-03T14:23:14.906Z,6.00
2019-01-03T14:25:43.754Z,6.00
2019-01-03T14:28:12.722Z,5.90
2019-01-03T14:30:41.674Z,5.80
2019-01-03T14:33:10.628Z,5.80
2019-01-03T14:35:39.553Z,5.70
2019-01-03T14:38:08.582Z,5.60
2019-01-03T14:40:37.525Z,5.50
2019-01-03T14:43:06.520Z,5.50
2019-01-03T14:45:35.394Z,5.40
2019-01-03T14:48:04.327Z,5.40
2019-01-03T14:50:33.259Z,5.30
2019-01-03T14:53:02.178Z,5.30
2019-01-03T14:55:31.107Z,5.20
2019-01-03T14:58:00.006Z,5.10
2019-01-03T15:00:28.954Z,5.10
2019-01-03T15:02:57.840Z,5.10
2019-01-03T15:05:26.754Z,5.00
2019-01-03T15:07:55.615Z,4.90
2019-01-03T15:10:24.542Z,4.90
2019-01-03T15:12:53.413Z,4.80
2019-01-03T15:15:22.334Z,4.70
2019-01-03T15:17:51.193Z,4.60
2019-01-03T15:20:20.201Z,4.60
2019-01-03T15:22:49.064Z,4.50
2019-01-03T15:25:18.178Z,4.50
2019-01-03T15:27:47.221Z,4.60
2019-01-03T15:30:16.192Z,4.70
2019-01-03T15:32:45.154Z,4.70
2019-01-03T15:35:14.098Z,4.60
2019-01-03T15:37:42.959Z,4.50
2019-01-03T15:40:11.845Z,4.40
2019-01-03T15:42:40.853Z,4.30
2019-01-03T15:45:09.988Z,4.20
2019-01-03T15:47:38.914Z,4.10
2019-01-03T15:50:08.039Z,4.10
2019-01-03T15:52:37.377Z,4.10
2019-01-03T15:55:06.511Z,4.00
2019-01-03T15:57:35.373Z,3.90
2019-01-03T16:00:06.141Z,3.90
2019-01-03T16:02:35.110Z,3.80
2019-01-03T16:05:04.270Z,3.80
2019-01-03T16:07:33.532Z,3.80
2019-01-03T16:10:02.540Z,3.80
2019-01-03T16:12:31.471Z,3.70
2019-01-03T16:15:00.386Z,3.70
2019-01-03T16:17:29.427Z,3.70
2019-01-03T16:19:59.543Z,3.70
2019-01-03T16:22:28.638Z,3.60
2019-01-03T16:24:57.742Z,3.60
2019-01-03T16:27:26.622Z,3.60
2019-01-03T16:29:55.627Z,3.50
2019-01-03T16:32:24.569Z,3.50
2019-01-03T16:34:53.452Z,3.50
2019-01-03T16:37:22.556Z,3.50
2019-01-03T16:39:51.508Z,3.50
2019-01-03T16:42:20.474Z,3.50
2019-01-03T16:44:49.346Z,3.50
2019-01-03T16:47:18.194Z,3.50
2019-01-03T16:49:47.103Z,3.50
2019-01-03T16:52:16.034Z,3.60
2019-01-03T16:54:44.907Z,3.60
2019-01-03T16:57:13.901Z,3.70
2019-01-03T16:59:42.832Z,3.70
2019-01-03T17:02:11.661Z,3.80
2019-01-03T17:04:40.562Z,3.80
2019-01-03T17:07:09.416Z,3.70
2019-01-03T17:09:38.501Z,3.60
2019-01-03T17:12:07.450Z,3.60
2019-01-03T17:14:36.381Z,3.50
2019-01-03T17:17:05.480Z,3.50
2019-01-03T17:19:34.357Z,3.40
2019-01-03T17:22:03.421Z,3.50
2019-01-03T17:24:32.433Z,3.50
2019-01-03T17:27:01.298Z,3.40
2019-01-03T17:29:31.731Z,3.40
2019-01-03T17:32:00.598Z,3.30
2019-01-03T17:34:29.544Z,3.20
2019-01-03T17:36:58.431Z,3.20
2019-01-03T17:39:27.289Z,3.10
2019-01-03T17:41:56.333Z,3.10
2019-01-03T17:44:30.709Z,3.00
2019-01-03T17:47:01.271Z,2.90
2019-01-03T17:49:30.365Z,2.90
2019-01-03T17:51:59.393Z,2.90
2019-01-03T17:54:29.483Z,2.80
2019-01-03T17:56:58.881Z,2.80
2019-01-03T17:59:33.280Z,2.70
2019-01-03T18:02:05.925Z,2.70
2019-01-03T18:04:36.119Z,2.80
2019-01-03T18:07:11.859Z,2.70
2019-01-03T18:09:42.948Z,2.70
2019-01-03T18:12:14.586Z,2.70
2019-01-03T18:14:44.301Z,2.60
2019-01-03T18:17:17.247Z,2.50
2019-01-03T18:19:47.483Z,2.50
2019-01-03T18:22:16.495Z,2.40
2019-01-03T18:24:45.559Z,2.30
2019-01-03T18:27:15.886Z,2.30
2019-01-03T18:29:45.653Z,2.30
2019-01-03T18:32:17.454Z,2.20
2019-01-03T18:34:46.445Z,2.20
2019-01-03T18:37:15.325Z,2.20
2019-01-03T18:39:44.246Z,2.10
2019-01-03T18:42:13.120Z,2.10
2019-01-03T18:44:42.057Z,2.00
2019-01-03T18:47:10.918Z,2.00
2019-01-03T18:49:39.774Z,2.00
2019-01-03T18:52:08.786Z,1.90
2019-01-03T18:54:37.731Z,1.90
2019-01-03T18:57:06.758Z,1.90
2019-01-03T18:59:35.715Z,1.90
2019-01-03T19:02:04.662Z,1.90
2019-01-03T19:04:33.541Z,1.90
2019-01-03T19:07:02.569Z,1.90
2019-01-03T19:09:31.414Z,1.90
2019-01-03T19:12:00.679Z,1.90
2019-01-03T19:14:29.654Z,1.90
2019-01-03T19:16:58.517Z,1.90
2019-01-03T19:19:27.478Z,1.80
2019-01-03T19:21:56.406Z,1.80
2019-01-03T19:24:25.296Z,1.70
2019-01-03T19:26:54.415Z,1.60
2019-01-03T19:29:23.320Z,1.60
2019-01-03T19:31:52.322Z,1.60
2019-01-03T19:34:21.308Z,1.60
2019-01-03T19:36:50.168Z,1.50
2019-01-03T19:39:20.358Z,1.50
2019-01-03T19:41:57.768Z,1.50
2019-01-03T19:44:26.824Z,1.50
2019-01-03T19:46:55.696Z,1.40
2019-01-03T19:49:24.584Z,1.30
2019-01-03T19:51:53.465Z,1.30
2019-01-03T19:54:22.368Z,1.30
2019-01-03T19:56:51.305Z,1.20
2019-01-03T19:59:20.262Z,1.20
2019-01-03T20:01:49.142Z,1.10
2019-01-03T20:04:18.087Z,1.10
2019-01-03T20:06:53.294Z,1.10
2019-01-03T20:09:22.165Z,1.10
2019-01-03T20:11:51.162Z,1.00
2019-01-03T20:14:20.037Z,1.10
2019-01-03T20:16:49.001Z,1.00
2019-01-03T20:19:22.691Z,1.00
2019-01-03T20:21:51.394Z,1.00
2019-01-03T20:24:20.386Z,1.00
2019-01-03T20:26:49.275Z,1.00
2019-01-03T20:29:18.141Z,1.00
2019-01-03T20:31:48.903Z,0.90
2019-01-03T20:34:17.792Z,0.90
2019-01-03T20:36:46.654Z,0.90
2019-01-03T20:39:18.242Z,0.80
2019-01-03T20:41:49.466Z,0.80
2019-01-03T20:44:19.678Z,0.80
2019-01-03T20:46:48.832Z,0.80
2019-01-03T20:49:17.698Z,0.70
2019-01-03T20:51:56.678Z,0.70
2019-01-03T20:54:25.491Z,0.70
2019-01-03T20:56:54.402Z,0.60
2019-01-03T20:59:23.578Z,0.60
2019-01-03T21:01:58.161Z,0.60
2019-01-03T21:04:28.638Z,0.60
2019-01-03T21:07:01.114Z,0.50
2019-01-03T21:09:30.198Z,0.50
2019-01-03T21:11:59.876Z,0.50
2019-01-03T21:14:28.826Z,0.40
2019-01-03T21:16:57.747Z,0.40
2019-01-03T21:19:27.154Z,0.40
2019-01-03T21:21:56.081Z,0.40
2019-01-03T21:24:25.033Z,0.40
2019-01-03T21:26:53.974Z,0.40
2019-01-03T21:29:22.990Z,0.30
2019-01-03T21:31:51.938Z,0.30
2019-01-03T21:34:20.775Z,0.30
2019-01-03T21:36:49.824Z,0.30
2019-01-03T21:39:18.681Z,0.20
2019-01-03T21:41:51.908Z,0.20
2019-01-03T21:44:24.400Z,0.20
2019-01-03T21:46:54.334Z,0.20
2019-01-03T21:49:23.963Z,0.20
2019-01-03T21:51:57.190Z,0.20
2019-01-03T21:54:26.929Z,0.20
2019-01-03T21:57:00.015Z,0.20
2019-01-03T21:59:32.242Z,0.20
2019-01-03T22:02:02.475Z,0.20
2019-01-03T22:04:38.141Z,0.20
2019-01-03T22:07:09.379Z,0.20
2019-01-03T22:09:42.361Z,0.30
2019-01-03T22:12:13.201Z,0.30
2019-01-03T22:14:48.665Z,0.30
2019-01-03T22:17:20.926Z,0.30
2019-01-03T22:19:51.284Z,0.40
2019-01-03T22:22:30.379Z,0.40
2019-01-03T22:25:00.307Z,0.40
2019-01-03T22:27:32.794Z,0.40
2019-01-03T22:30:03.944Z,0.50
2019-01-03T22:32:39.453Z,0.50
2019-01-03T22:35:12.759Z,0.40
2019-01-03T22:37:47.459Z,0.40
2019-01-03T22:40:17.801Z,0.40
2019-01-03T22:42:47.982Z,0.40
2019-01-03T22:45:22.041Z,0.40
2019-01-03T22:47:56.145Z,0.40
2019-01-03T22:50:25.926Z,0.50
2019-01-03T22:52:59.965Z,0.50
2019-01-03T22:55:30.716Z,0.50
2019-01-03T22:58:03.811Z,0.50
2019-01-03T23:00:50.858Z,0.50
2019-01-03T23:03:25.651Z,0.60
2019-01-03T23:05:57.769Z,0.60
2019-01-03T23:08:27.171Z,0.70
2019-01-03T23:10:56.221Z,0.70
2019-01-03T23:13:25.341Z,0.70
2019-01-03T23:15:55.408Z,0.80
2019-01-03T23:18:31.354Z,0.80
2019-01-03T23:21:00.755Z,0.80
2019-01-03T23:23:32.839Z,0.80
2019-01-03T23:26:07.004Z,0.80
2019-01-03T23:28:38.396Z,0.90
2019-01-03T23:31:07.911Z,0.90
2019-01-03T23:33:39.073Z,0.90
2019-01-03T23:36:08.248Z,0.90
2019-01-03T23:38:37.229Z,0.90
2019-01-03T23:41:06.289Z,0.90
2019-01-03T23:43:37.650Z,0.90
2019-01-03T23:46:08.651Z,0.90
2019-01-03T23:48:40.690Z,0.90
2019-01-03T23:51:12.506Z,0.90
2019-01-03T23:53:41.589Z,0.90
2019-01-03T23:56:10.450Z,0.90
2019-01-03T23:58:39.384Z,0.90
